sensor_id;sensor_type;location;lat;lon;timestamp;temperature;humidity
25200;DHT22;33094;48.782;9.162;2023-06-26T00:58:58;22.30;86.30
25200;DHT22;33094;48.782;9.162;2023-06-26T01:05:00;21.70;87.40
25200;DHT22;33094;48.782;9.162;2023-06-26T01:28:15;21.80;89.00
25200;DHT22;33094;48.782;9.162;2023-06-26T01:31:22;21.70;89.50
25200;DHT22;33094;48.782;9.162;2023-06-26T01:34:31;21.70;89.80
25200;DHT22;33094;48.782;9.162;2023-06-26T01:47:18;21.70;90.10
25200;DHT22;33094;48.782;9.162;2023-06-26T01:50:30;21.60;90.20
25200;DHT22;33094;48.782;9.162;2023-06-26T01:53:22;21.70;90.20
25200;DHT22;33094;48.782;9.162;2023-06-26T01:56:14;22.40;90.50
25200;DHT22;33094;48.782;9.162;2023-06-26T01:58:57;21.40;90.60
25200;DHT22;33094;48.782;9.162;2023-06-26T02:01:39;21.40;90.40
25200;DHT22;33094;48.782;9.162;2023-06-26T02:04:28;21.40;90.60
25200;DHT22;33094;48.782;9.162;2023-06-26T02:07:14;22.50;91.00
25200;DHT22;33094;48.782;9.162;2023-06-26T02:09:44;21.30;90.80
25200;DHT22;33094;48.782;9.162;2023-06-26T02:12:30;21.20;90.80
25200;DHT22;33094;48.782;9.162;2023-06-26T02:15:03;21.00;91.00
25200;DHT22;33094;48.782;9.162;2023-06-26T02:17:40;21.10;91.10
25200;DHT22;33094;48.782;9.162;2023-06-26T02:20:12;21.20;90.80
25200;DHT22;33094;48.782;9.162;2023-06-26T02:22:47;21.40;90.80
25200;DHT22;33094;48.782;9.162;2023-06-26T02:25:20;21.20;91.10
25200;DHT22;33094;48.782;9.162;2023-06-26T02:27:51;20.40;90.70
25200;DHT22;33094;48.782;9.162;2023-06-26T02:30:21;22.10;91.00
25200;DHT22;33094;48.782;9.162;2023-06-26T02:32:51;21.10;90.10
25200;DHT22;33094;48.782;9.162;2023-06-26T02:35:27;20.90;90.60
25200;DHT22;33094;48.782;9.162;2023-06-26T02:37:56;20.90;90.80
25200;DHT22;33094;48.782;9.162;2023-06-26T02:40:30;21.70;90.80
25200;DHT22;33094;48.782;9.162;2023-06-26T02:42:56;20.60;90.70
25200;DHT22;33094;48.782;9.162;2023-06-26T02:45:21;20.70;90.50
25200;DHT22;33094;48.782;9.162;2023-06-26T02:47:47;20.70;90.50
25200;DHT22;33094;48.782;9.162;2023-06-26T02:50:17;20.70;90.50
25200;DHT22;33094;48.782;9.162;2023-06-26T02:52:52;20.70;90.40
25200;DHT22;33094;48.782;9.162;2023-06-26T02:55:33;20.70;90.40
25200;DHT22;33094;48.782;9.162;2023-06-26T02:57:58;20.50;90.60
25200;DHT22;33094;48.782;9.162;2023-06-26T03:00:24;20.50;90.60
25200;DHT22;33094;48.782;9.162;2023-06-26T03:02:50;20.50;90.70
25200;DHT22;33094;48.782;9.162;2023-06-26T03:05:15;20.40;90.80
25200;DHT22;33094;48.782;9.162;2023-06-26T03:07:42;20.40;90.80
25200;DHT22;33094;48.782;9.162;2023-06-26T03:10:07;20.50;90.90
25200;DHT22;33094;48.782;9.162;2023-06-26T03:12:33;20.40;90.90
25200;DHT22;33094;48.782;9.162;2023-06-26T03:14:59;20.50;91.00
25200;DHT22;33094;48.782;9.162;2023-06-26T03:17:24;19.80;90.60
25200;DHT22;33094;48.782;9.162;2023-06-26T03:19:50;20.50;90.80
25200;DHT22;33094;48.782;9.162;2023-06-26T03:22:16;20.50;90.80
25200;DHT22;33094;48.782;9.162;2023-06-26T03:24:41;20.40;90.90
25200;DHT22;33094;48.782;9.162;2023-06-26T03:27:09;20.40;90.90
25200;DHT22;33094;48.782;9.162;2023-06-26T03:29:35;20.90;91.10
25200;DHT22;33094;48.782;9.162;2023-06-26T03:32:11;20.50;90.90
25200;DHT22;33094;48.782;9.162;2023-06-26T03:34:59;20.40;91.00
25200;DHT22;33094;48.782;9.162;2023-06-26T03:37:35;20.50;90.90
25200;DHT22;33094;48.782;9.162;2023-06-26T03:40:18;20.50;90.90
25200;DHT22;33094;48.782;9.162;2023-06-26T03:42:44;20.70;91.00
25200;DHT22;33094;48.782;9.162;2023-06-26T03:45:10;20.60;91.00
25200;DHT22;33094;48.782;9.162;2023-06-26T03:47:35;20.60;91.00
25200;DHT22;33094;48.782;9.162;2023-06-26T03:50:01;20.60;91.00
25200;DHT22;33094;48.782;9.162;2023-06-26T03:52:26;20.70;90.90
25200;DHT22;33094;48.782;9.162;2023-06-26T03:54:52;20.60;90.90
25200;DHT22;33094;48.782;9.162;2023-06-26T03:57:18;20.60;91.10
25200;DHT22;33094;48.782;9.162;2023-06-26T03:59:43;20.60;91.30
25200;DHT22;33094;48.782;9.162;2023-06-26T04:02:09;20.60;91.00
25200;DHT22;33094;48.782;9.162;2023-06-26T04:04:37;20.60;91.10
25200;DHT22;33094;48.782;9.162;2023-06-26T04:07:03;20.60;91.10
25200;DHT22;33094;48.782;9.162;2023-06-26T04:09:29;20.60;91.10
25200;DHT22;33094;48.782;9.162;2023-06-26T04:11:54;20.70;91.00
25200;DHT22;33094;48.782;9.162;2023-06-26T04:14:20;20.70;90.90
25200;DHT22;33094;48.782;9.162;2023-06-26T04:16:46;20.70;90.80
25200;DHT22;33094;48.782;9.162;2023-06-26T04:19:12;20.80;90.80
25200;DHT22;33094;48.782;9.162;2023-06-26T04:21:37;20.80;90.80
25200;DHT22;33094;48.782;9.162;2023-06-26T04:24:03;20.80;90.70
25200;DHT22;33094;48.782;9.162;2023-06-26T04:26:29;20.90;90.90
25200;DHT22;33094;48.782;9.162;2023-06-26T04:28:55;21.40;91.10
25200;DHT22;33094;48.782;9.162;2023-06-26T04:31:20;21.20;91.10
25200;DHT22;33094;48.782;9.162;2023-06-26T04:33:47;21.30;91.40
25200;DHT22;33094;48.782;9.162;2023-06-26T04:36:19;21.50;91.70
25200;DHT22;33094;48.782;9.162;2023-06-26T04:38:44;21.50;91.40
25200;DHT22;33094;48.782;9.162;2023-06-26T04:41:10;21.40;91.50
25200;DHT22;33094;48.782;9.162;2023-06-26T04:43:36;21.40;91.60
25200;DHT22;33094;48.782;9.162;2023-06-26T04:46:05;21.30;92.00
25200;DHT22;33094;48.782;9.162;2023-06-26T04:48:31;21.20;91.90
25200;DHT22;33094;48.782;9.162;2023-06-26T04:50:57;21.30;92.00
25200;DHT22;33094;48.782;9.162;2023-06-26T04:53:24;21.30;91.70
25200;DHT22;33094;48.782;9.162;2023-06-26T04:55:57;21.30;91.70
25200;DHT22;33094;48.782;9.162;2023-06-26T04:58:25;21.30;91.50
25200;DHT22;33094;48.782;9.162;2023-06-26T05:14:24;21.40;91.70
25200;DHT22;33094;48.782;9.162;2023-06-26T05:16:50;21.40;91.70
25200;DHT22;33094;48.782;9.162;2023-06-26T05:19:15;21.30;91.90
25200;DHT22;33094;48.782;9.162;2023-06-26T05:21:41;21.50;91.90
25200;DHT22;33094;48.782;9.162;2023-06-26T05:24:08;21.40;92.00
25200;DHT22;33094;48.782;9.162;2023-06-26T05:26:40;21.80;92.10
25200;DHT22;33094;48.782;9.162;2023-06-26T05:29:06;21.50;91.90
25200;DHT22;33094;48.782;9.162;2023-06-26T05:31:33;21.60;91.80
25200;DHT22;33094;48.782;9.162;2023-06-26T05:34:02;21.50;91.90
25200;DHT22;33094;48.782;9.162;2023-06-26T05:36:29;21.70;91.90
25200;DHT22;33094;48.782;9.162;2023-06-26T05:38:56;21.80;91.90
25200;DHT22;33094;48.782;9.162;2023-06-26T05:41:22;21.60;92.00
25200;DHT22;33094;48.782;9.162;2023-06-26T05:43:47;21.70;92.00
25200;DHT22;33094;48.782;9.162;2023-06-26T05:46:13;21.80;91.90
25200;DHT22;33094;48.782;9.162;2023-06-26T05:48:39;21.90;91.80
25200;DHT22;33094;48.782;9.162;2023-06-26T05:51:05;22.00;91.90
25200;DHT22;33094;48.782;9.162;2023-06-26T05:53:31;22.10;91.90
25200;DHT22;33094;48.782;9.162;2023-06-26T05:55:57;22.10;91.70
25200;DHT22;33094;48.782;9.162;2023-06-26T05:58:24;22.40;91.60
25200;DHT22;33094;48.782;9.162;2023-06-26T06:00:51;22.60;91.30
25200;DHT22;33094;48.782;9.162;2023-06-26T06:03:16;23.20;91.10
25200;DHT22;33094;48.782;9.162;2023-06-26T06:05:42;24.00;90.10
25200;DHT22;33094;48.782;9.162;2023-06-26T06:08:08;25.00;88.30
25200;DHT22;33094;48.782;9.162;2023-06-26T06:10:34;26.00;85.80
25200;DHT22;33094;48.782;9.162;2023-06-26T06:12:59;26.60;84.60
25200;DHT22;33094;48.782;9.162;2023-06-26T06:15:25;27.00;83.70
25200;DHT22;33094;48.782;9.162;2023-06-26T06:17:51;27.90;82.60
25200;DHT22;33094;48.782;9.162;2023-06-26T06:20:17;28.50;81.50
25200;DHT22;33094;48.782;9.162;2023-06-26T06:22:45;28.90;79.90
25200;DHT22;33094;48.782;9.162;2023-06-26T06:25:11;28.40;80.50
25200;DHT22;33094;48.782;9.162;2023-06-26T06:27:36;28.00;81.30
25200;DHT22;33094;48.782;9.162;2023-06-26T06:58:11;25.30;87.10
25200;DHT22;33094;48.782;9.162;2023-06-26T07:00:48;25.20;87.00
25200;DHT22;33094;48.782;9.162;2023-06-26T07:03:17;25.20;87.10
25200;DHT22;33094;48.782;9.162;2023-06-26T07:05:51;25.20;87.30
25200;DHT22;33094;48.782;9.162;2023-06-26T07:08:26;25.20;87.00
25200;DHT22;33094;48.782;9.162;2023-06-26T07:10:54;25.40;86.60
25200;DHT22;33094;48.782;9.162;2023-06-26T07:13:22;25.30;86.30
25200;DHT22;33094;48.782;9.162;2023-06-26T07:15:48;25.40;86.20
25200;DHT22;33094;48.782;9.162;2023-06-26T07:18:14;25.30;86.60
25200;DHT22;33094;48.782;9.162;2023-06-26T07:20:57;25.40;86.70
25200;DHT22;33094;48.782;9.162;2023-06-26T07:23:23;25.50;86.90
25200;DHT22;33094;48.782;9.162;2023-06-26T07:25:56;25.50;86.60
25200;DHT22;33094;48.782;9.162;2023-06-26T07:28:22;25.70;86.50
25200;DHT22;33094;48.782;9.162;2023-06-26T07:30:47;25.90;86.30
25200;DHT22;33094;48.782;9.162;2023-06-26T07:33:15;25.90;85.60
25200;DHT22;33094;48.782;9.162;2023-06-26T07:35:54;26.00;85.60
25200;DHT22;33094;48.782;9.162;2023-06-26T07:38:25;26.20;85.40
25200;DHT22;33094;48.782;9.162;2023-06-26T07:41:01;26.40;85.10
25200;DHT22;33094;48.782;9.162;2023-06-26T07:43:27;26.60;84.30
25200;DHT22;33094;48.782;9.162;2023-06-26T07:46:15;26.70;84.10
25200;DHT22;33094;48.782;9.162;2023-06-26T07:49:21;26.90;84.00
25200;DHT22;33094;48.782;9.162;2023-06-26T07:52:18;27.10;83.80
25200;DHT22;33094;48.782;9.162;2023-06-26T07:55:04;27.30;82.90
25200;DHT22;33094;48.782;9.162;2023-06-26T07:57:48;27.70;82.40
25200;DHT22;33094;48.782;9.162;2023-06-26T08:00:18;27.90;81.40
25200;DHT22;33094;48.782;9.162;2023-06-26T08:02:44;27.80;81.60
25200;DHT22;33094;48.782;9.162;2023-06-26T08:05:09;28.00;81.30
25200;DHT22;33094;48.782;9.162;2023-06-26T08:07:35;28.20;81.00
25200;DHT22;33094;48.782;9.162;2023-06-26T08:10:01;28.30;80.60
25200;DHT22;33094;48.782;9.162;2023-06-26T08:12:27;28.60;80.80
25200;DHT22;33094;48.782;9.162;2023-06-26T08:14:52;28.80;79.40
25200;DHT22;33094;48.782;9.162;2023-06-26T08:17:18;28.80;79.00
25200;DHT22;33094;48.782;9.162;2023-06-26T08:19:44;28.80;78.40
25200;DHT22;33094;48.782;9.162;2023-06-26T08:22:09;28.70;78.20
25200;DHT22;33094;48.782;9.162;2023-06-26T08:24:35;29.10;78.60
25200;DHT22;33094;48.782;9.162;2023-06-26T08:30:09;31.10;75.10
25200;DHT22;33094;48.782;9.162;2023-06-26T08:46:53;33.00;70.80
25200;DHT22;33094;48.782;9.162;2023-06-26T08:52:22;33.00;69.80
25200;DHT22;33094;48.782;9.162;2023-06-26T09:38:09;36.20;65.00
25200;DHT22;33094;48.782;9.162;2023-06-26T09:41:25;35.80;65.20
25200;DHT22;33094;48.782;9.162;2023-06-26T09:44:10;35.40;65.40
25200;DHT22;33094;48.782;9.162;2023-06-26T09:46:45;34.90;66.40
25200;DHT22;33094;48.782;9.162;2023-06-26T09:49:18;34.50;67.10
25200;DHT22;33094;48.782;9.162;2023-06-26T09:51:44;34.50;67.10
25200;DHT22;33094;48.782;9.162;2023-06-26T09:54:16;33.80;67.00
25200;DHT22;33094;48.782;9.162;2023-06-26T10:00:47;33.80;67.90
25200;DHT22;33094;48.782;9.162;2023-06-26T10:20:55;36.50;65.70
25200;DHT22;33094;48.782;9.162;2023-06-26T10:23:23;36.50;66.10
25200;DHT22;33094;48.782;9.162;2023-06-26T10:25:52;36.50;65.90
25200;DHT22;33094;48.782;9.162;2023-06-26T10:28:20;36.00;66.70
25200;DHT22;33094;48.782;9.162;2023-06-26T10:30:48;34.50;68.40
25200;DHT22;33094;48.782;9.162;2023-06-26T10:33:16;33.20;70.70
25200;DHT22;33094;48.782;9.162;2023-06-26T10:35:46;32.80;71.80
25200;DHT22;33094;48.782;9.162;2023-06-26T10:38:16;32.40;72.50
25200;DHT22;33094;48.782;9.162;2023-06-26T10:43:14;31.50;74.30
25200;DHT22;33094;48.782;9.162;2023-06-26T10:46:14;31.20;74.60
25200;DHT22;33094;48.782;9.162;2023-06-26T10:48:59;31.10;75.00
25200;DHT22;33094;48.782;9.162;2023-06-26T10:51:35;31.20;73.80
25200;DHT22;33094;48.782;9.162;2023-06-26T10:54:01;30.80;73.50
25200;DHT22;33094;48.782;9.162;2023-06-26T11:02:06;33.20;70.90
25200;DHT22;33094;48.782;9.162;2023-06-26T11:07:24;34.10;69.30
25200;DHT22;33094;48.782;9.162;2023-06-26T11:15:12;34.10;69.40
25200;DHT22;33094;48.782;9.162;2023-06-26T11:17:39;34.90;69.00
25200;DHT22;33094;48.782;9.162;2023-06-26T11:20:07;34.80;68.40
25200;DHT22;33094;48.782;9.162;2023-06-26T11:22:37;33.60;70.90
25200;DHT22;33094;48.782;9.162;2023-06-26T11:25:03;32.10;73.60
25200;DHT22;33094;48.782;9.162;2023-06-26T11:27:48;32.10;73.60
25200;DHT22;33094;48.782;9.162;2023-06-26T11:30:24;32.70;72.70
25200;DHT22;33094;48.782;9.162;2023-06-26T11:32:50;33.50;71.80
25200;DHT22;33094;48.782;9.162;2023-06-26T11:35:26;34.10;70.10
25200;DHT22;33094;48.782;9.162;2023-06-26T11:38:00;34.90;69.10
25200;DHT22;33094;48.782;9.162;2023-06-26T11:40:30;33.90;70.50
25200;DHT22;33094;48.782;9.162;2023-06-26T11:42:59;33.30;71.50
25200;DHT22;33094;48.782;9.162;2023-06-26T11:45:30;32.80;72.10
25200;DHT22;33094;48.782;9.162;2023-06-26T11:47:57;32.80;72.70
25200;DHT22;33094;48.782;9.162;2023-06-26T11:50:24;32.40;72.80
25200;DHT22;33094;48.782;9.162;2023-06-26T11:52:57;33.20;71.70
25200;DHT22;33094;48.782;9.162;2023-06-26T11:55:24;33.10;72.40
25200;DHT22;33094;48.782;9.162;2023-06-26T11:57:53;33.00;72.60
25200;DHT22;33094;48.782;9.162;2023-06-26T12:00:20;33.20;72.10
25200;DHT22;33094;48.782;9.162;2023-06-26T12:02:47;32.60;73.10
25200;DHT22;33094;48.782;9.162;2023-06-26T12:05:14;31.80;75.50
25200;DHT22;33094;48.782;9.162;2023-06-26T12:07:45;31.50;77.10
25200;DHT22;33094;48.782;9.162;2023-06-26T12:10:14;30.70;79.00
25200;DHT22;33094;48.782;9.162;2023-06-26T12:12:41;30.50;80.10
25200;DHT22;33094;48.782;9.162;2023-06-26T12:15:09;30.40;80.10
25200;DHT22;33094;48.782;9.162;2023-06-26T12:17:39;30.00;81.30
25200;DHT22;33094;48.782;9.162;2023-06-26T12:20:16;31.00;79.90
25200;DHT22;33094;48.782;9.162;2023-06-26T12:22:45;32.20;78.50
25200;DHT22;33094;48.782;9.162;2023-06-26T12:25:11;33.70;75.70
25200;DHT22;33094;48.782;9.162;2023-06-26T12:27:37;33.20;76.10
25200;DHT22;33094;48.782;9.162;2023-06-26T12:30:03;34.30;74.40
25200;DHT22;33094;48.782;9.162;2023-06-26T12:32:31;34.10;73.40
25200;DHT22;33094;48.782;9.162;2023-06-26T12:34:57;34.20;73.90
25200;DHT22;33094;48.782;9.162;2023-06-26T12:37:23;33.50;75.00
25200;DHT22;33094;48.782;9.162;2023-06-26T12:39:54;33.80;74.60
25200;DHT22;33094;48.782;9.162;2023-06-26T12:42:25;34.10;74.60
25200;DHT22;33094;48.782;9.162;2023-06-26T12:44:52;33.90;74.80
25200;DHT22;33094;48.782;9.162;2023-06-26T12:47:27;34.30;74.10
25200;DHT22;33094;48.782;9.162;2023-06-26T12:49:54;33.40;75.20
25200;DHT22;33094;48.782;9.162;2023-06-26T12:52:20;33.60;75.00
25200;DHT22;33094;48.782;9.162;2023-06-26T12:54:46;34.40;73.40
25200;DHT22;33094;48.782;9.162;2023-06-26T12:57:13;33.40;74.10
25200;DHT22;33094;48.782;9.162;2023-06-26T12:59:42;33.90;74.00
25200;DHT22;33094;48.782;9.162;2023-06-26T13:02:09;34.50;73.00
25200;DHT22;33094;48.782;9.162;2023-06-26T13:04:36;34.50;72.10
25200;DHT22;33094;48.782;9.162;2023-06-26T13:07:08;33.60;73.30
25200;DHT22;33094;48.782;9.162;2023-06-26T13:09:34;33.20;74.10
25200;DHT22;33094;48.782;9.162;2023-06-26T13:12:01;34.10;73.40
25200;DHT22;33094;48.782;9.162;2023-06-26T13:14:32;34.70;72.20
25200;DHT22;33094;48.782;9.162;2023-06-26T13:16:59;34.40;72.60
25200;DHT22;33094;48.782;9.162;2023-06-26T13:19:26;32.90;74.50
25200;DHT22;33094;48.782;9.162;2023-06-26T13:21:52;32.40;76.30
25200;DHT22;33094;48.782;9.162;2023-06-26T13:24:18;31.70;76.60
25200;DHT22;33094;48.782;9.162;2023-06-26T13:26:43;31.10;77.70
25200;DHT22;33094;48.782;9.162;2023-06-26T13:29:09;30.80;78.90
25200;DHT22;33094;48.782;9.162;2023-06-26T13:31:35;31.60;77.80
25200;DHT22;33094;48.782;9.162;2023-06-26T13:34:02;31.90;76.70
25200;DHT22;33094;48.782;9.162;2023-06-26T13:36:31;31.30;76.30
25200;DHT22;33094;48.782;9.162;2023-06-26T13:39:01;30.60;77.50
25200;DHT22;33094;48.782;9.162;2023-06-26T13:41:28;30.40;78.20
25200;DHT22;33094;48.782;9.162;2023-06-26T13:43:54;30.70;77.70
25200;DHT22;33094;48.782;9.162;2023-06-26T13:46:20;31.00;76.90
25200;DHT22;33094;48.782;9.162;2023-06-26T13:48:45;30.40;77.10
25200;DHT22;33094;48.782;9.162;2023-06-26T13:51:11;30.80;77.20
25200;DHT22;33094;48.782;9.162;2023-06-26T13:53:37;31.10;75.30
25200;DHT22;33094;48.782;9.162;2023-06-26T13:56:03;30.60;75.60
25200;DHT22;33094;48.782;9.162;2023-06-26T13:58:28;30.50;75.10
25200;DHT22;33094;48.782;9.162;2023-06-26T14:00:55;30.80;74.70
25200;DHT22;33094;48.782;9.162;2023-06-26T14:03:21;30.90;74.70
25200;DHT22;33094;48.782;9.162;2023-06-26T14:05:47;30.00;74.70
25200;DHT22;33094;48.782;9.162;2023-06-26T14:08:13;30.30;74.20
25200;DHT22;33094;48.782;9.162;2023-06-26T14:10:39;30.50;73.40
25200;DHT22;33094;48.782;9.162;2023-06-26T14:13:05;30.60;73.20
25200;DHT22;33094;48.782;9.162;2023-06-26T14:15:30;30.60;72.80
25200;DHT22;33094;48.782;9.162;2023-06-26T14:17:56;30.80;72.40
25200;DHT22;33094;48.782;9.162;2023-06-26T14:20:22;31.00;72.30
25200;DHT22;33094;48.782;9.162;2023-06-26T14:22:49;31.10;71.80
25200;DHT22;33094;48.782;9.162;2023-06-26T14:25:16;30.90;71.50
25200;DHT22;33094;48.782;9.162;2023-06-26T14:27:42;30.40;71.50
25200;DHT22;33094;48.782;9.162;2023-06-26T14:30:08;30.20;72.50
25200;DHT22;33094;48.782;9.162;2023-06-26T14:32:34;30.40;73.10
25200;DHT22;33094;48.782;9.162;2023-06-26T14:35:00;30.60;72.70
25200;DHT22;33094;48.782;9.162;2023-06-26T14:37:28;30.20;73.00
25200;DHT22;33094;48.782;9.162;2023-06-26T14:39:54;30.20;73.30
25200;DHT22;33094;48.782;9.162;2023-06-26T14:42:20;30.40;72.60
25200;DHT22;33094;48.782;9.162;2023-06-26T14:44:46;30.30;72.60
25200;DHT22;33094;48.782;9.162;2023-06-26T14:47:16;30.10;72.80
25200;DHT22;33094;48.782;9.162;2023-06-26T14:49:42;30.30;72.40
25200;DHT22;33094;48.782;9.162;2023-06-26T14:52:08;30.30;73.10
25200;DHT22;33094;48.782;9.162;2023-06-26T14:54:34;30.10;72.70
25200;DHT22;33094;48.782;9.162;2023-06-26T14:57:02;30.10;73.30
25200;DHT22;33094;48.782;9.162;2023-06-26T14:59:28;30.10;73.30
25200;DHT22;33094;48.782;9.162;2023-06-26T15:01:54;30.00;74.40
25200;DHT22;33094;48.782;9.162;2023-06-26T15:04:19;29.90;74.60
25200;DHT22;33094;48.782;9.162;2023-06-26T15:06:45;30.10;74.80
25200;DHT22;33094;48.782;9.162;2023-06-26T15:09:11;30.40;74.40
25200;DHT22;33094;48.782;9.162;2023-06-26T15:11:36;30.20;73.90
25200;DHT22;33094;48.782;9.162;2023-06-26T15:14:02;29.80;74.70
25200;DHT22;33094;48.782;9.162;2023-06-26T15:16:28;29.70;75.00
25200;DHT22;33094;48.782;9.162;2023-06-26T15:18:53;29.70;74.90
25200;DHT22;33094;48.782;9.162;2023-06-26T15:21:19;29.40;75.30
25200;DHT22;33094;48.782;9.162;2023-06-26T15:23:46;29.40;75.40
25200;DHT22;33094;48.782;9.162;2023-06-26T15:26:12;29.50;75.30
25200;DHT22;33094;48.782;9.162;2023-06-26T15:28:39;29.50;75.30
25200;DHT22;33094;48.782;9.162;2023-06-26T15:31:04;29.20;75.30
25200;DHT22;33094;48.782;9.162;2023-06-26T15:33:30;29.10;75.30
25200;DHT22;33094;48.782;9.162;2023-06-26T15:35:56;29.30;75.40
25200;DHT22;33094;48.782;9.162;2023-06-26T15:38:21;29.40;75.00
25200;DHT22;33094;48.782;9.162;2023-06-26T15:40:47;29.40;75.00
25200;DHT22;33094;48.782;9.162;2023-06-26T15:43:13;28.70;75.70
25200;DHT22;33094;48.782;9.162;2023-06-26T15:45:39;28.70;76.40
25200;DHT22;33094;48.782;9.162;2023-06-26T15:48:05;28.90;75.40
25200;DHT22;33094;48.782;9.162;2023-06-26T15:50:31;28.70;75.00
25200;DHT22;33094;48.782;9.162;2023-06-26T15:52:56;28.60;75.10
25200;DHT22;33094;48.782;9.162;2023-06-26T15:55:22;28.60;74.90
25200;DHT22;33094;48.782;9.162;2023-06-26T15:57:48;28.20;75.30
25200;DHT22;33094;48.782;9.162;2023-06-26T16:00:14;28.10;75.90
25200;DHT22;33094;48.782;9.162;2023-06-26T16:02:41;28.20;76.20
25200;DHT22;33094;48.782;9.162;2023-06-26T16:05:07;28.30;75.90
25200;DHT22;33094;48.782;9.162;2023-06-26T16:07:33;28.30;76.20
25200;DHT22;33094;48.782;9.162;2023-06-26T16:09:59;28.20;76.40
25200;DHT22;33094;48.782;9.162;2023-06-26T16:12:25;28.10;76.90
25200;DHT22;33094;48.782;9.162;2023-06-26T16:14:50;28.30;76.70
25200;DHT22;33094;48.782;9.162;2023-06-26T16:17:16;28.30;76.80
25200;DHT22;33094;48.782;9.162;2023-06-26T16:19:42;28.20;76.50
25200;DHT22;33094;48.782;9.162;2023-06-26T16:22:07;28.00;77.00
25200;DHT22;33094;48.782;9.162;2023-06-26T16:24:34;27.80;76.90
25200;DHT22;33094;48.782;9.162;2023-06-26T16:26:59;27.80;76.70
25200;DHT22;33094;48.782;9.162;2023-06-26T16:29:25;27.70;76.50
25200;DHT22;33094;48.782;9.162;2023-06-26T16:31:52;27.70;77.10
25200;DHT22;33094;48.782;9.162;2023-06-26T16:34:20;27.80;76.90
25200;DHT22;33094;48.782;9.162;2023-06-26T16:36:46;27.60;75.30
25200;DHT22;33094;48.782;9.162;2023-06-26T16:39:17;27.40;75.00
25200;DHT22;33094;48.782;9.162;2023-06-26T16:41:51;27.50;74.70
25200;DHT22;33094;48.782;9.162;2023-06-26T16:44:20;27.50;75.20
25200;DHT22;33094;48.782;9.162;2023-06-26T16:46:46;27.60;74.40
25200;DHT22;33094;48.782;9.162;2023-06-26T16:49:12;27.80;74.30
25200;DHT22;33094;48.782;9.162;2023-06-26T16:51:38;27.80;73.50
25200;DHT22;33094;48.782;9.162;2023-06-26T16:54:03;27.80;73.10
25200;DHT22;33094;48.782;9.162;2023-06-26T16:56:29;27.90;73.00
25200;DHT22;33094;48.782;9.162;2023-06-26T16:58:55;27.80;72.00
25200;DHT22;33094;48.782;9.162;2023-06-26T17:01:21;27.50;70.60
25200;DHT22;33094;48.782;9.162;2023-06-26T17:03:47;27.30;70.90
25200;DHT22;33094;48.782;9.162;2023-06-26T17:06:13;27.10;70.60
25200;DHT22;33094;48.782;9.162;2023-06-26T17:08:38;26.90;70.00
25200;DHT22;33094;48.782;9.162;2023-06-26T17:11:05;26.90;69.90
25200;DHT22;33094;48.782;9.162;2023-06-26T17:13:30;26.90;70.20
25200;DHT22;33094;48.782;9.162;2023-06-26T17:18:31;26.80;68.30
25200;DHT22;33094;48.782;9.162;2023-06-26T17:20:57;26.80;68.20
25200;DHT22;33094;48.782;9.162;2023-06-26T17:23:23;26.70;67.50
25200;DHT22;33094;48.782;9.162;2023-06-26T17:25:48;26.60;67.60
25200;DHT22;33094;48.782;9.162;2023-06-26T17:28:14;26.60;67.30
25200;DHT22;33094;48.782;9.162;2023-06-26T17:30:40;26.50;66.90
25200;DHT22;33094;48.782;9.162;2023-06-26T17:39:20;26.40;67.30
25200;DHT22;33094;48.782;9.162;2023-06-26T17:41:46;26.50;67.00
25200;DHT22;33094;48.782;9.162;2023-06-26T17:44:12;26.50;67.20
25200;DHT22;33094;48.782;9.162;2023-06-26T17:46:37;26.40;67.00
25200;DHT22;33094;48.782;9.162;2023-06-26T17:49:04;26.40;66.60
25200;DHT22;33094;48.782;9.162;2023-06-26T17:51:30;26.30;66.60
25200;DHT22;33094;48.782;9.162;2023-06-26T17:53:56;26.30;66.80
25200;DHT22;33094;48.782;9.162;2023-06-26T17:56:21;26.10;66.80
25200;DHT22;33094;48.782;9.162;2023-06-26T17:58:47;25.90;66.20
25200;DHT22;33094;48.782;9.162;2023-06-26T18:01:13;25.60;66.20
25200;DHT22;33094;48.782;9.162;2023-06-26T18:03:38;25.50;66.50
25200;DHT22;33094;48.782;9.162;2023-06-26T18:06:04;25.50;66.30
25200;DHT22;33094;48.782;9.162;2023-06-26T18:08:30;25.70;66.00
25200;DHT22;33094;48.782;9.162;2023-06-26T18:10:56;25.60;65.80
25200;DHT22;33094;48.782;9.162;2023-06-26T18:13:22;25.30;66.10
25200;DHT22;33094;48.782;9.162;2023-06-26T18:15:51;25.30;65.90
25200;DHT22;33094;48.782;9.162;2023-06-26T18:18:16;25.30;66.00
25200;DHT22;33094;48.782;9.162;2023-06-26T18:20:45;25.40;66.60
25200;DHT22;33094;48.782;9.162;2023-06-26T18:23:10;25.50;66.20
25200;DHT22;33094;48.782;9.162;2023-06-26T18:25:36;25.30;66.20
25200;DHT22;33094;48.782;9.162;2023-06-26T18:28:05;25.30;66.50
25200;DHT22;33094;48.782;9.162;2023-06-26T18:30:30;25.40;66.50
25200;DHT22;33094;48.782;9.162;2023-06-26T18:32:56;25.40;66.70
25200;DHT22;33094;48.782;9.162;2023-06-26T18:35:22;25.40;66.60
25200;DHT22;33094;48.782;9.162;2023-06-26T18:37:48;25.30;66.70
25200;DHT22;33094;48.782;9.162;2023-06-26T18:40:14;25.10;67.00
25200;DHT22;33094;48.782;9.162;2023-06-26T18:42:41;25.00;67.30
25200;DHT22;33094;48.782;9.162;2023-06-26T18:45:11;24.90;67.70
25200;DHT22;33094;48.782;9.162;2023-06-26T18:47:38;24.80;68.00
25200;DHT22;33094;48.782;9.162;2023-06-26T18:50:04;24.80;68.30
25200;DHT22;33094;48.782;9.162;2023-06-26T18:52:29;24.90;68.60
25200;DHT22;33094;48.782;9.162;2023-06-26T18:54:55;24.90;68.50
25200;DHT22;33094;48.782;9.162;2023-06-26T18:57:21;24.80;68.50
25200;DHT22;33094;48.782;9.162;2023-06-26T18:59:47;24.60;69.80
25200;DHT22;33094;48.782;9.162;2023-06-26T19:02:12;24.50;69.70
25200;DHT22;33094;48.782;9.162;2023-06-26T19:04:41;24.50;69.80
25200;DHT22;33094;48.782;9.162;2023-06-26T19:07:12;24.50;69.70
25200;DHT22;33094;48.782;9.162;2023-06-26T19:09:47;24.40;70.10
25200;DHT22;33094;48.782;9.162;2023-06-26T19:12:21;24.40;70.40
25200;DHT22;33094;48.782;9.162;2023-06-26T19:14:48;24.10;70.80
25200;DHT22;33094;48.782;9.162;2023-06-26T19:17:17;24.00;71.00
25200;DHT22;33094;48.782;9.162;2023-06-26T19:19:51;24.00;71.20
25200;DHT22;33094;48.782;9.162;2023-06-26T19:22:18;24.00;71.10
25200;DHT22;33094;48.782;9.162;2023-06-26T19:24:44;24.00;71.00
25200;DHT22;33094;48.782;9.162;2023-06-26T19:27:12;23.90;70.90
25200;DHT22;33094;48.782;9.162;2023-06-26T19:29:40;23.80;71.10
25200;DHT22;33094;48.782;9.162;2023-06-26T19:32:15;23.80;71.20
25200;DHT22;33094;48.782;9.162;2023-06-26T19:34:46;23.70;71.30
25200;DHT22;33094;48.782;9.162;2023-06-26T19:37:12;23.60;71.50
25200;DHT22;33094;48.782;9.162;2023-06-26T19:39:38;23.60;71.70
25200;DHT22;33094;48.782;9.162;2023-06-26T19:42:05;23.60;71.50
25200;DHT22;33094;48.782;9.162;2023-06-26T19:44:34;23.50;71.90